createdAt,value
2022-10-25T00:01:27.240Z,13.82
2022-10-25T00:03:55.328Z,13.84
2022-10-25T00:06:23.013Z,13.84
2022-10-25T00:08:50.276Z,13.84
2022-10-25T00:11:23.938Z,13.91
2022-10-25T00:13:52.854Z,13.95
2022-10-25T00:16:22.827Z,14.00
2022-10-25T00:18:50.497Z,14.03
2022-10-25T00:21:18.028Z,14.01
2022-10-25T00:23:45.403Z,13.98
2022-10-25T00:26:12.614Z,14.01
2022-10-25T00:28:39.898Z,14.01
2022-10-25T00:31:12.128Z,14.01
2022-10-25T00:33:40.690Z,14.03
2022-10-25T00:36:17.059Z,14.06
2022-10-25T00:38:45.845Z,14.09
2022-10-25T00:41:21.619Z,14.06
2022-10-25T00:43:52.946Z,14.08
2022-10-25T00:46:25.672Z,14.06
2022-10-25T00:49:14.480Z,14.03
2022-10-25T00:51:44.370Z,14.02
2022-10-25T00:54:15.344Z,13.99
2022-10-25T00:56:45.667Z,13.99
2022-10-25T00:59:17.279Z,13.93
2022-10-25T01:01:44.464Z,13.89
2022-10-25T01:04:15.807Z,13.87
2022-10-25T01:06:52.880Z,13.81
2022-10-25T01:09:28.650Z,13.77
2022-10-25T01:11:55.751Z,13.74
2022-10-25T01:14:23.525Z,13.70
2022-10-25T01:17:35.184Z,13.68
2022-10-25T01:20:13.868Z,13.67
2022-10-25T01:23:00.681Z,13.63
2022-10-25T01:25:36.466Z,13.62
2022-10-25T01:28:24.315Z,13.58
2022-10-25T01:31:10.082Z,13.60
2022-10-25T01:33:59.498Z,13.61
2022-10-25T01:36:32.342Z,13.56
2022-10-25T01:39:13.452Z,13.54
2022-10-25T01:41:50.246Z,13.53
2022-10-25T01:47:04.981Z,13.45
2022-10-25T01:49:47.197Z,13.41
2022-10-25T01:52:18.363Z,13.40
2022-10-25T01:54:45.121Z,13.34
2022-10-25T01:57:30.941Z,13.28
2022-10-25T02:00:00.412Z,13.26
2022-10-25T02:02:39.358Z,13.22
2022-10-25T02:05:23.140Z,13.20
2022-10-25T02:08:15.283Z,13.16
2022-10-25T02:10:51.772Z,13.16
2022-10-25T02:14:07.473Z,13.10
2022-10-25T02:16:55.287Z,13.07
2022-10-25T02:19:33.034Z,13.05
2022-10-25T02:22:02.680Z,13.00
2022-10-25T02:24:32.150Z,13.01
2022-10-25T02:26:59.166Z,12.93
2022-10-25T02:29:30.168Z,12.95
2022-10-25T02:31:57.149Z,12.95
2022-10-25T02:34:24.873Z,12.93
2022-10-25T02:36:53.383Z,12.91
2022-10-25T02:39:27.886Z,12.85
2022-10-25T02:41:57.389Z,12.83
2022-10-25T02:44:24.724Z,12.81
2022-10-25T02:46:51.447Z,12.82
2022-10-25T02:49:18.443Z,12.82
2022-10-25T02:51:45.395Z,12.82
2022-10-25T02:54:12.408Z,12.82
2022-10-25T02:56:39.132Z,12.82
2022-10-25T02:59:06.120Z,12.83
2022-10-25T03:01:33.178Z,12.81
2022-10-25T03:04:00.208Z,12.82
2022-10-25T03:06:26.965Z,12.81
2022-10-25T03:08:53.948Z,12.80
2022-10-25T03:11:20.737Z,12.79
2022-10-25T03:13:47.688Z,12.79
2022-10-25T03:16:14.550Z,12.76
2022-10-25T03:18:41.615Z,12.72
2022-10-25T03:21:08.443Z,12.68
2022-10-25T03:23:35.738Z,12.61
2022-10-25T03:26:02.623Z,12.59
2022-10-25T03:28:30.519Z,12.59
2022-10-25T03:30:59.158Z,12.55
2022-10-25T03:33:27.083Z,12.54
2022-10-25T03:35:54.894Z,12.53
2022-10-25T03:38:22.449Z,12.48
2022-10-25T03:40:49.281Z,12.46
2022-10-25T03:43:16.459Z,12.45
2022-10-25T03:45:43.357Z,12.43
2022-10-25T03:48:10.479Z,12.46
2022-10-25T03:50:37.323Z,12.45
2022-10-25T03:53:05.606Z,12.47
2022-10-25T03:55:33.527Z,12.46
2022-10-25T03:58:00.557Z,12.44
2022-10-25T04:00:27.888Z,12.44
2022-10-25T04:03:01.949Z,12.43
2022-10-25T04:05:30.426Z,12.45
2022-10-25T04:07:57.635Z,12.45
2022-10-25T04:10:25.314Z,12.46
2022-10-25T04:12:54.047Z,12.45
2022-10-25T04:15:22.039Z,12.47
2022-10-25T04:17:50.232Z,12.46
2022-10-25T04:20:17.517Z,12.47
2022-10-25T04:22:44.629Z,12.47
2022-10-25T04:25:11.521Z,12.50
2022-10-25T04:27:38.517Z,12.48
2022-10-25T04:30:05.666Z,12.48
2022-10-25T04:32:32.729Z,12.45
2022-10-25T04:34:59.508Z,12.45
2022-10-25T04:37:26.476Z,12.45
2022-10-25T04:39:53.239Z,12.47
2022-10-25T04:42:20.299Z,12.46
2022-10-25T04:44:47.087Z,12.47
2022-10-25T04:47:14.073Z,12.48
2022-10-25T04:49:40.881Z,12.51
2022-10-25T04:52:07.891Z,12.52
2022-10-25T04:54:34.710Z,12.54
2022-10-25T04:57:01.892Z,12.53
2022-10-25T04:59:28.870Z,12.54
2022-10-25T05:01:55.869Z,12.52
2022-10-25T05:04:22.639Z,12.56
2022-10-25T05:06:49.739Z,12.57
2022-10-25T05:09:16.590Z,12.59
2022-10-25T05:11:43.592Z,12.58
2022-10-25T05:14:10.418Z,12.61
2022-10-25T05:16:39.196Z,12.61
2022-10-25T05:19:06.220Z,12.60
2022-10-25T05:21:33.249Z,12.61
2022-10-25T05:24:01.996Z,12.65
2022-10-25T05:26:30.658Z,12.66
2022-10-25T05:28:57.571Z,12.69
2022-10-25T05:31:27.082Z,12.69
2022-10-25T05:33:55.248Z,12.66
2022-10-25T05:36:22.276Z,12.68
2022-10-25T05:38:49.220Z,12.67
2022-10-25T05:41:17.918Z,12.69
2022-10-25T05:43:45.648Z,12.72
2022-10-25T05:46:16.114Z,12.74
2022-10-25T05:48:48.455Z,12.77
2022-10-25T05:51:32.126Z,12.73
2022-10-25T05:54:02.810Z,12.75
2022-10-25T05:56:31.911Z,12.75
2022-10-25T05:59:02.299Z,12.74
2022-10-25T06:01:29.491Z,12.71
2022-10-25T06:03:56.397Z,12.76
2022-10-25T06:06:23.546Z,12.75
2022-10-25T06:08:55.289Z,12.76
2022-10-25T06:11:22.326Z,12.80
2022-10-25T06:13:49.331Z,12.77
2022-10-25T06:16:18.479Z,12.76
2022-10-25T06:18:45.483Z,12.79
2022-10-25T06:21:14.098Z,12.79
2022-10-25T06:23:42.251Z,12.82
2022-10-25T06:26:11.605Z,12.79
2022-10-25T06:28:38.839Z,12.83
2022-10-25T06:31:14.777Z,12.86
2022-10-25T06:33:42.592Z,12.86
2022-10-25T06:36:14.848Z,12.86
2022-10-25T06:38:41.768Z,12.88
2022-10-25T06:41:37.160Z,12.88
2022-10-25T06:44:06.449Z,12.89
2022-10-25T06:46:57.914Z,12.90
2022-10-25T06:49:23.394Z,12.90
2022-10-25T06:51:50.359Z,12.93
2022-10-25T06:54:17.170Z,12.97
2022-10-25T06:56:44.254Z,12.99
2022-10-25T06:59:11.418Z,13.02
2022-10-25T07:01:38.487Z,13.03
2022-10-25T07:04:05.570Z,13.08
2022-10-25T07:06:36.171Z,13.16
2022-10-25T07:09:05.083Z,13.26
2022-10-25T07:11:33.141Z,13.41
2022-10-25T07:14:01.309Z,13.56
2022-10-25T07:16:28.746Z,13.66
2022-10-25T07:19:00.433Z,13.75
2022-10-25T07:21:28.279Z,13.83
2022-10-25T07:23:55.380Z,13.91
2022-10-25T07:26:26.115Z,13.97
2022-10-25T07:28:54.447Z,13.99
2022-10-25T07:31:24.701Z,14.08
2022-10-25T07:33:53.214Z,14.12
2022-10-25T07:36:21.181Z,14.17
2022-10-25T07:38:48.298Z,14.24
2022-10-25T07:41:15.601Z,14.25
2022-10-25T07:43:42.716Z,14.34
2022-10-25T07:46:09.841Z,14.36
2022-10-25T07:48:36.867Z,14.30
2022-10-25T07:51:06.227Z,14.21
2022-10-25T07:53:33.142Z,14.11
2022-10-25T07:56:00.537Z,14.12
2022-10-25T07:58:27.339Z,14.16
2022-10-25T08:01:04.107Z,14.31
2022-10-25T08:03:31.677Z,14.49
2022-10-25T08:05:59.017Z,14.67
2022-10-25T08:08:26.226Z,14.79
2022-10-25T08:10:53.842Z,14.86
2022-10-25T08:13:21.078Z,14.90
2022-10-25T08:15:52.681Z,14.92
2022-10-25T08:18:19.943Z,15.01
2022-10-25T08:21:01.676Z,15.11
2022-10-25T08:23:29.331Z,15.08
2022-10-25T08:25:56.292Z,15.06
2022-10-25T08:28:23.076Z,15.01
2022-10-25T08:30:50.172Z,14.94
2022-10-25T08:33:16.940Z,15.00
2022-10-25T08:35:43.882Z,15.13
2022-10-25T08:38:10.640Z,15.21
2022-10-25T08:40:59.006Z,15.25
2022-10-25T08:43:44.436Z,15.27
2022-10-25T08:46:27.015Z,15.22
2022-10-25T08:49:10.542Z,15.27
2022-10-25T08:51:41.971Z,15.46
2022-10-25T08:54:28.865Z,15.60
2022-10-25T08:57:16.208Z,15.68
2022-10-25T08:59:47.538Z,15.62
2022-10-25T09:02:23.051Z,15.54
2022-10-25T09:04:49.965Z,15.58
2022-10-25T09:07:25.779Z,15.65
2022-10-25T09:10:03.367Z,15.81
2022-10-25T09:12:39.517Z,15.98
2022-10-25T09:15:25.011Z,16.17
2022-10-25T09:17:53.898Z,16.39
2022-10-25T09:20:36.610Z,16.81
2022-10-25T09:26:16.922Z,17.47
2022-10-25T09:28:57.953Z,17.75
2022-10-25T09:31:25.660Z,17.96
2022-10-25T09:34:06.076Z,18.00
2022-10-25T09:36:46.577Z,17.99
2022-10-25T09:39:25.750Z,17.73
2022-10-25T09:41:54.672Z,17.60
2022-10-25T09:44:42.219Z,17.42
2022-10-25T09:47:18.767Z,17.36
2022-10-25T09:49:57.999Z,17.22
2022-10-25T09:52:54.642Z,17.13
2022-10-25T09:55:39.475Z,17.11
2022-10-25T09:58:09.271Z,17.04
2022-10-25T10:00:40.503Z,16.89
2022-10-25T10:03:11.850Z,16.82
2022-10-25T10:05:44.841Z,16.70
2022-10-25T10:08:11.635Z,16.49
2022-10-25T10:10:40.112Z,16.39
2022-10-25T10:13:22.085Z,16.36
2022-10-25T10:15:59.821Z,16.44
2022-10-25T10:18:33.143Z,16.97
2022-10-25T10:21:12.384Z,17.57
2022-10-25T10:23:53.437Z,18.36
2022-10-25T10:26:20.387Z,19.01
2022-10-25T10:28:49.600Z,19.37
2022-10-25T10:31:18.830Z,19.68
2022-10-25T10:33:50.511Z,19.88
2022-10-25T10:36:29.119Z,19.99
2022-10-25T10:39:19.075Z,19.83
2022-10-25T10:42:05.229Z,20.20
2022-10-25T10:44:36.174Z,20.06
2022-10-25T10:47:21.056Z,20.28
2022-10-25T10:49:48.272Z,20.68
2022-10-25T10:52:45.866Z,20.95
2022-10-25T10:55:31.528Z,21.43
2022-10-25T10:58:16.744Z,22.13
2022-10-25T11:01:11.560Z,22.55
2022-10-25T11:03:53.498Z,22.82
2022-10-25T11:06:34.859Z,22.86
2022-10-25T11:09:19.468Z,23.08
2022-10-25T11:12:05.705Z,23.04
2022-10-25T11:14:32.815Z,22.94
2022-10-25T11:17:29.682Z,22.15
2022-10-25T11:20:25.155Z,21.13
2022-10-25T11:23:05.569Z,20.29
2022-10-25T11:25:44.263Z,19.52
2022-10-25T11:28:26.002Z,19.02
2022-10-25T11:31:17.972Z,18.44
2022-10-25T11:33:52.986Z,18.03
2022-10-25T11:36:38.731Z,18.12
2022-10-25T11:39:23.445Z,18.48
2022-10-25T11:41:55.534Z,18.95
2022-10-25T11:44:44.332Z,19.85
2022-10-25T11:47:25.335Z,20.82
2022-10-25T11:50:17.330Z,21.53
2022-10-25T11:52:47.172Z,22.13
2022-10-25T11:55:41.893Z,22.52
2022-10-25T11:58:39.409Z,22.70
2022-10-25T12:01:15.497Z,22.72
2022-10-25T12:04:40.619Z,21.85
2022-10-25T12:07:19.358Z,21.91
2022-10-25T12:10:01.737Z,22.13
2022-10-25T12:12:52.871Z,22.73
2022-10-25T12:15:41.863Z,23.06
2022-10-25T12:18:15.320Z,22.87
2022-10-25T12:20:46.464Z,22.38
2022-10-25T12:23:18.802Z,21.85
2022-10-25T12:25:53.684Z,21.28
2022-10-25T12:28:42.467Z,21.28
2022-10-25T12:31:26.160Z,21.85
2022-10-25T12:34:04.051Z,22.95
2022-10-25T12:36:36.435Z,23.34
2022-10-25T12:39:16.941Z,23.59
2022-10-25T12:41:52.290Z,23.76
2022-10-25T12:44:21.826Z,23.73
2022-10-25T12:47:04.770Z,23.82
2022-10-25T12:49:40.367Z,23.58
2022-10-25T12:52:25.797Z,23.24
2022-10-25T12:55:14.028Z,22.38
2022-10-25T12:58:19.902Z,21.61
2022-10-25T13:00:52.718Z,20.51
2022-10-25T13:03:19.782Z,19.98
2022-10-25T13:06:27.391Z,19.76
2022-10-25T13:09:02.130Z,19.68
2022-10-25T13:11:38.105Z,19.57
2022-10-25T13:14:13.568Z,19.39
2022-10-25T13:16:40.366Z,19.27
2022-10-25T13:19:42.808Z,19.06
2022-10-25T13:22:35.751Z,18.92
2022-10-25T13:25:17.172Z,18.86
2022-10-25T13:28:29.050Z,18.89
2022-10-25T13:31:31.175Z,18.76
2022-10-25T13:34:17.912Z,18.62
2022-10-25T13:36:52.331Z,18.44
2022-10-25T13:39:52.342Z,18.06
2022-10-25T13:42:28.304Z,17.76
2022-10-25T13:44:59.300Z,17.60
2022-10-25T13:47:50.628Z,17.25
2022-10-25T13:50:29.233Z,17.12
2022-10-25T13:53:04.634Z,16.94
2022-10-25T13:55:44.622Z,16.81
2022-10-25T13:58:31.988Z,16.70
2022-10-25T14:01:18.972Z,16.61
2022-10-25T14:04:25.176Z,16.49
2022-10-25T14:06:52.280Z,16.28
2022-10-25T14:09:27.195Z,16.13
2022-10-25T14:12:07.836Z,16.04
2022-10-25T14:14:47.490Z,15.91
2022-10-25T14:17:34.946Z,15.77
2022-10-25T14:20:09.526Z,15.68
2022-10-25T14:22:46.503Z,15.62
2022-10-25T14:25:27.967Z,15.54
2022-10-25T14:28:10.066Z,15.49
2022-10-25T14:30:41.725Z,15.45
2022-10-25T14:33:26.367Z,15.39
2022-10-25T14:36:14.133Z,15.33
2022-10-25T14:38:55.052Z,15.25
2022-10-25T14:41:33.922Z,15.21
2022-10-25T14:44:02.262Z,15.15
2022-10-25T14:46:30.765Z,15.11
2022-10-25T14:48:59.160Z,15.01
2022-10-25T14:51:31.634Z,14.93
2022-10-25T14:54:06.415Z,14.87
2022-10-25T14:56:38.343Z,14.78
2022-10-25T14:59:19.878Z,14.70
2022-10-25T15:01:55.961Z,14.66
2022-10-25T15:04:32.943Z,14.54
2022-10-25T15:07:01.799Z,14.40
2022-10-25T15:09:44.095Z,14.38
2022-10-25T15:12:11.006Z,14.26
2022-10-25T15:14:37.941Z,14.31
2022-10-25T15:17:18.951Z,14.27
2022-10-25T15:20:04.694Z,14.22
2022-10-25T15:22:50.690Z,14.14
2022-10-25T15:25:24.084Z,14.08
2022-10-25T15:27:54.680Z,14.06
2022-10-25T15:30:55.658Z,13.99
2022-10-25T15:33:26.920Z,13.94
2022-10-25T15:35:59.819Z,13.88
2022-10-25T15:38:42.022Z,13.88
2022-10-25T15:41:14.950Z,13.84
2022-10-25T15:43:42.053Z,13.81
2022-10-25T15:46:28.902Z,13.78
2022-10-25T15:48:57.886Z,13.75
2022-10-25T15:51:27.486Z,13.72
2022-10-25T15:53:57.899Z,13.70
2022-10-25T15:56:24.724Z,13.69
2022-10-25T15:58:51.829Z,13.67
2022-10-25T16:01:19.129Z,13.66
2022-10-25T16:03:46.235Z,13.60
2022-10-25T16:06:14.450Z,13.57
2022-10-25T16:08:42.412Z,13.56
2022-10-25T16:11:18.608Z,13.56
2022-10-25T16:13:49.043Z,13.53
2022-10-25T16:16:39.306Z,13.50
2022-10-25T16:19:14.628Z,13.51
2022-10-25T16:21:41.724Z,13.48
2022-10-25T16:24:08.806Z,13.47
2022-10-25T16:26:42.970Z,13.45
2022-10-25T16:29:21.014Z,13.45
2022-10-25T16:31:48.351Z,13.46
2022-10-25T16:34:17.431Z,13.45
2022-10-25T16:36:44.823Z,13.43
2022-10-25T16:39:12.026Z,13.42
2022-10-25T16:41:42.470Z,13.44
2022-10-25T16:44:15.643Z,13.43
2022-10-25T16:46:42.727Z,13.45
2022-10-25T16:49:09.894Z,13.46
2022-10-25T16:51:37.984Z,13.47
2022-10-25T16:54:05.746Z,13.48
2022-10-25T16:56:32.608Z,13.47
2022-10-25T16:59:00.661Z,13.47
2022-10-25T17:01:33.772Z,13.44
2022-10-25T17:04:02.056Z,13.42
2022-10-25T17:06:44.131Z,13.40
2022-10-25T17:09:11.425Z,13.33
2022-10-25T17:11:38.595Z,13.32
2022-10-25T17:14:06.238Z,13.30
2022-10-25T17:16:33.457Z,13.30
2022-10-25T17:19:00.812Z,13.26
2022-10-25T17:21:28.453Z,13.24
2022-10-25T17:23:56.540Z,13.21
2022-10-25T17:26:23.376Z,13.19
2022-10-25T17:28:50.360Z,13.13
2022-10-25T17:31:17.821Z,13.09
2022-10-25T17:33:44.835Z,13.06
2022-10-25T17:36:14.501Z,13.02
2022-10-25T17:38:42.211Z,12.96
2022-10-25T17:41:09.885Z,12.93
2022-10-25T17:43:39.097Z,12.83
2022-10-25T17:46:08.461Z,12.78
2022-10-25T17:48:35.486Z,12.71
2022-10-25T17:51:04.127Z,12.65
2022-10-25T17:53:31.568Z,12.60
2022-10-25T17:55:58.736Z,12.51
2022-10-25T17:58:25.798Z,12.46
2022-10-25T18:00:54.550Z,12.40
2022-10-25T18:03:21.711Z,12.40
2022-10-25T18:05:48.627Z,12.36
2022-10-25T18:08:15.932Z,12.33
2022-10-25T18:10:42.854Z,12.33
2022-10-25T18:13:09.919Z,12.34
2022-10-25T18:15:38.354Z,12.33
2022-10-25T18:18:05.390Z,12.24
2022-10-25T18:20:32.430Z,12.19
2022-10-25T18:22:59.514Z,12.17
2022-10-25T18:25:26.293Z,12.10
2022-10-25T18:27:53.276Z,12.06
2022-10-25T18:30:20.122Z,12.02
2022-10-25T18:32:47.407Z,11.96
2022-10-25T18:35:14.286Z,11.88
2022-10-25T18:37:41.336Z,11.79
2022-10-25T18:40:08.839Z,11.71
2022-10-25T18:42:36.156Z,11.68
2022-10-25T18:45:04.289Z,11.60
2022-10-25T18:47:31.386Z,11.56
2022-10-25T18:49:58.295Z,11.51
2022-10-25T18:52:26.431Z,11.43
2022-10-25T18:54:53.662Z,11.31
2022-10-25T18:57:20.641Z,11.20
2022-10-25T18:59:47.703Z,11.02
2022-10-25T19:02:14.842Z,10.93
2022-10-25T19:04:41.767Z,10.84
2022-10-25T19:07:08.794Z,10.83
2022-10-25T19:09:35.646Z,10.79
2022-10-25T19:12:02.671Z,10.75
2022-10-25T19:14:29.482Z,10.75
2022-10-25T19:16:56.502Z,10.70
2022-10-25T19:19:23.280Z,10.69
2022-10-25T19:21:50.363Z,10.69
2022-10-25T19:24:17.367Z,10.71
2022-10-25T19:26:45.013Z,10.74
2022-10-25T19:29:11.832Z,10.79
2022-10-25T19:31:38.803Z,10.85
2022-10-25T19:34:05.575Z,10.92
2022-10-25T19:36:32.849Z,10.99
2022-10-25T19:38:59.665Z,11.02
2022-10-25T19:41:27.003Z,11.06
2022-10-25T19:43:56.423Z,11.03
2022-10-25T19:46:23.327Z,10.92
2022-10-25T19:48:50.163Z,10.91
2022-10-25T19:51:19.111Z,10.88
2022-10-25T19:53:46.386Z,10.88
2022-10-25T19:56:16.601Z,10.87
2022-10-25T19:58:44.201Z,10.86
2022-10-25T20:01:27.399Z,10.85
2022-10-25T20:03:55.529Z,10.90
2022-10-25T20:06:25.294Z,10.92
2022-10-25T20:08:53.201Z,10.93
2022-10-25T20:11:21.828Z,11.00
2022-10-25T20:13:48.665Z,11.09
2022-10-25T20:16:15.665Z,11.19
2022-10-25T20:18:42.827Z,11.29
2022-10-25T20:21:13.062Z,11.37
2022-10-25T20:23:41.525Z,11.45
2022-10-25T20:26:12.496Z,11.52
2022-10-25T20:28:39.593Z,11.62
2022-10-25T20:31:06.704Z,11.69
2022-10-25T20:33:33.521Z,11.72
2022-10-25T20:36:04.814Z,11.81
2022-10-25T20:38:31.644Z,11.87
2022-10-25T20:41:07.118Z,11.90
2022-10-25T20:43:34.651Z,11.94
2022-10-25T20:46:01.892Z,11.99
2022-10-25T20:48:29.071Z,12.04
2022-10-25T20:50:56.130Z,12.10
2022-10-25T20:53:23.371Z,12.14
2022-10-25T20:55:50.459Z,12.20
2022-10-25T20:58:19.422Z,12.25
2022-10-25T21:00:47.370Z,12.30
2022-10-25T21:03:15.237Z,12.35
2022-10-25T21:05:45.418Z,12.38
2022-10-25T21:08:12.925Z,12.43
2022-10-25T21:10:41.543Z,12.50
2022-10-25T21:13:09.309Z,12.51
2022-10-25T21:15:37.124Z,12.58
2022-10-25T21:18:04.037Z,12.62
2022-10-25T21:20:32.632Z,12.62
2022-10-25T21:22:59.443Z,12.61
2022-10-25T21:25:26.474Z,12.58
2022-10-25T21:27:56.613Z,12.57
2022-10-25T21:30:24.101Z,12.52
2022-10-25T21:32:50.926Z,12.47
2022-10-25T21:35:20.774Z,12.40
2022-10-25T21:37:49.266Z,12.31
2022-10-25T21:40:18.244Z,12.23
2022-10-25T21:42:45.081Z,12.18
2022-10-25T21:45:12.120Z,12.15
2022-10-25T21:47:38.977Z,12.14
2022-10-25T21:50:09.275Z,12.10
2022-10-25T21:52:36.623Z,12.03
2022-10-25T21:55:04.093Z,11.96
2022-10-25T21:57:30.931Z,11.96
2022-10-25T21:59:57.897Z,11.95
2022-10-25T22:02:24.901Z,11.95
2022-10-25T22:04:52.052Z,11.96
2022-10-25T22:07:18.844Z,11.90
2022-10-25T22:09:46.016Z,11.89
2022-10-25T22:12:12.775Z,11.89
2022-10-25T22:14:39.794Z,11.88
2022-10-25T22:17:08.989Z,11.85
2022-10-25T22:19:35.858Z,11.78
2022-10-25T22:22:02.661Z,11.81
2022-10-25T22:24:29.599Z,11.80
2022-10-25T22:26:56.396Z,11.78
2022-10-25T22:29:23.507Z,11.76
2022-10-25T22:31:50.240Z,11.74
2022-10-25T22:34:17.260Z,11.76
2022-10-25T22:36:44.006Z,11.72
2022-10-25T22:39:11.037Z,11.70
2022-10-25T22:41:38.097Z,11.70
2022-10-25T22:44:05.334Z,11.69
2022-10-25T22:46:34.518Z,11.74
2022-10-25T22:49:06.996Z,11.76
2022-10-25T22:51:34.948Z,11.76
2022-10-25T22:54:01.971Z,11.78
2022-10-25T22:56:31.150Z,11.74
2022-10-25T22:59:02.143Z,11.66
2022-10-25T23:01:35.101Z,11.64
2022-10-25T23:04:04.458Z,11.60
2022-10-25T23:06:36.938Z,11.58
2022-10-25T23:09:07.012Z,11.58
2022-10-25T23:11:36.264Z,11.57
2022-10-25T23:14:05.273Z,11.59
2022-10-25T23:16:32.426Z,11.63
2022-10-25T23:18:59.575Z,11.65
2022-10-25T23:21:30.029Z,11.67
2022-10-25T23:23:58.897Z,11.68
2022-10-25T23:26:34.238Z,11.65
2022-10-25T23:29:01.391Z,11.61
2022-10-25T23:31:29.669Z,11.61
2022-10-25T23:33:59.194Z,11.57
2022-10-25T23:36:37.468Z,11.55
2022-10-25T23:39:06.752Z,11.56
2022-10-25T23:41:33.635Z,11.53
2022-10-25T23:44:00.745Z,11.51
2022-10-25T23:46:27.558Z,11.49
2022-10-25T23:48:54.559Z,11.45
2022-10-25T23:51:21.406Z,11.45
2022-10-25T23:53:48.848Z,11.43
2022-10-25T23:56:15.762Z,11.40
2022-10-25T23:58:42.886Z,11.39
